Aviation Digital Data Service (ADDS)

Output produced by METARs form (0106 UTC 29 March 2015)
found at http://aviationweather.gov/adds/metars/
 
KLAN 282340Z 2900/2924 19006KT P6SM SCT150 
     FM291400 19011G18KT P6SM OVC150 
     FM291900 20014G24KT P6SM -SHRA BKN060 
     FM292200 20015G25KT 5SM -SHRA BR OVC025